createdAt,value
2018-12-05T00:00:06.238Z,5.20
2018-12-05T00:02:47.050Z,5.20
2018-12-05T00:05:19.488Z,5.20
2018-12-05T00:07:51.448Z,5.20
2018-12-05T00:10:25.796Z,5.20
2018-12-05T00:12:57.669Z,5.20
2018-12-05T00:15:33.963Z,5.30
2018-12-05T00:18:06.051Z,5.30
2018-12-05T00:20:41.288Z,5.30
2018-12-05T00:23:13.642Z,5.30
2018-12-05T00:25:46.289Z,5.30
2018-12-05T00:28:18.290Z,5.30
2018-12-05T00:30:55.155Z,5.20
2018-12-05T00:33:29.658Z,5.30
2018-12-05T00:39:05.520Z,5.30
2018-12-05T00:41:37.585Z,5.30
2018-12-05T00:44:11.816Z,5.30
2018-12-05T00:46:46.143Z,5.30
2018-12-05T00:49:18.863Z,5.30
2018-12-05T00:51:50.465Z,5.30
2018-12-05T00:54:22.654Z,5.30
2018-12-05T00:56:54.896Z,5.30
2018-12-05T00:59:26.798Z,5.30
2018-12-05T01:01:58.833Z,5.30
2018-12-05T01:04:33.227Z,5.30
2018-12-05T01:07:05.876Z,5.30
2018-12-05T01:09:40.545Z,5.30
2018-12-05T01:15:11.353Z,5.30
2018-12-05T01:17:44.200Z,5.30
2018-12-05T01:20:19.506Z,5.20
2018-12-05T01:22:51.241Z,5.20
2018-12-05T01:25:28.441Z,5.20
2018-12-05T01:28:00.839Z,5.20
2018-12-05T01:30:32.730Z,5.20
2018-12-05T01:33:05.341Z,5.20
2018-12-05T01:35:37.790Z,5.10
2018-12-05T01:38:18.101Z,5.20
2018-12-05T01:40:52.560Z,5.10
2018-12-05T01:43:28.826Z,5.10
2018-12-05T01:46:02.983Z,5.10
2018-12-05T01:48:34.736Z,5.10
2018-12-05T01:51:07.423Z,5.10
2018-12-05T01:56:36.050Z,5.00
2018-12-05T01:59:08.157Z,5.00
2018-12-05T02:01:50.557Z,5.00
2018-12-05T02:04:23.089Z,5.00
2018-12-05T02:06:55.102Z,5.00
2018-12-05T02:09:27.234Z,5.00
2018-12-05T02:11:59.621Z,5.00
2018-12-05T02:14:31.166Z,5.10
2018-12-05T02:17:04.061Z,5.10
2018-12-05T02:19:38.375Z,5.10
2018-12-05T02:22:10.698Z,5.10
2018-12-05T02:24:47.566Z,5.10
2018-12-05T02:27:20.440Z,5.10
2018-12-05T02:29:58.376Z,5.10
2018-12-05T02:32:36.470Z,5.10
2018-12-05T02:35:08.261Z,5.10
2018-12-05T02:37:40.104Z,5.10
2018-12-05T02:40:12.682Z,5.10
2018-12-05T02:42:44.367Z,5.00
2018-12-05T02:45:18.916Z,5.00
2018-12-05T02:47:51.254Z,5.10
2018-12-05T02:50:22.806Z,5.10
2018-12-05T02:52:55.200Z,5.10
2018-12-05T02:55:29.577Z,5.10
2018-12-05T03:00:57.852Z,5.10
2018-12-05T03:03:32.463Z,5.10
2018-12-05T03:06:05.392Z,5.10
2018-12-05T03:08:37.036Z,5.10
2018-12-05T03:11:09.221Z,5.10
2018-12-05T03:13:43.352Z,5.10
2018-12-05T03:16:15.181Z,5.10
2018-12-05T03:18:47.009Z,5.10
2018-12-05T03:21:23.739Z,5.10
2018-12-05T03:23:58.381Z,5.10
2018-12-05T03:26:32.337Z,5.10
2018-12-05T03:29:06.849Z,5.10
2018-12-05T03:31:41.860Z,5.10
2018-12-05T03:34:16.621Z,5.10
2018-12-05T03:36:50.578Z,5.10
2018-12-05T03:39:24.680Z,5.10
2018-12-05T03:41:58.916Z,5.20
2018-12-05T03:44:30.924Z,5.10
2018-12-05T03:47:05.192Z,5.10
2018-12-05T03:49:37.795Z,5.10
2018-12-05T03:52:10.069Z,5.10
2018-12-05T03:57:41.072Z,5.20
2018-12-05T04:00:15.134Z,5.20
2018-12-05T04:02:49.495Z,5.20
2018-12-05T04:05:24.547Z,5.20
2018-12-05T04:07:56.193Z,5.20
2018-12-05T04:10:28.378Z,5.20
2018-12-05T04:13:02.917Z,5.20
2018-12-05T04:15:35.123Z,5.20
2018-12-05T04:18:09.647Z,5.20
2018-12-05T04:20:44.364Z,5.10
2018-12-05T04:26:12.066Z,5.20
2018-12-05T04:28:46.252Z,5.20
2018-12-05T04:31:20.233Z,5.20
2018-12-05T04:33:52.106Z,5.30
2018-12-05T04:36:24.249Z,5.30
2018-12-05T04:38:56.531Z,5.30
2018-12-05T04:41:28.520Z,5.30
2018-12-05T04:44:01.995Z,5.30
2018-12-05T04:46:34.608Z,5.30
2018-12-05T04:49:06.759Z,5.30
2018-12-05T04:51:41.230Z,5.30
2018-12-05T04:54:16.149Z,5.40
2018-12-05T04:56:48.525Z,5.40
2018-12-05T04:59:23.109Z,5.40
2018-12-05T05:01:55.095Z,5.40
2018-12-05T05:07:24.490Z,5.40
2018-12-05T05:09:56.280Z,5.40
2018-12-05T05:12:30.528Z,5.40
2018-12-05T05:15:02.451Z,5.50
2018-12-05T05:17:32.183Z,5.50
2018-12-05T05:20:04.677Z,5.50
2018-12-05T05:22:38.705Z,5.50
2018-12-05T05:25:11.233Z,5.50
2018-12-05T05:27:49.372Z,5.50
2018-12-05T05:30:23.441Z,5.50
2018-12-05T05:35:55.199Z,5.50
2018-12-05T05:38:29.122Z,5.60
2018-12-05T05:41:01.612Z,5.50
2018-12-05T05:43:42.218Z,5.50
2018-12-05T05:46:18.876Z,5.50
2018-12-05T05:48:53.688Z,5.60
2018-12-05T05:51:25.727Z,5.60
2018-12-05T05:53:57.444Z,5.50
2018-12-05T05:56:29.681Z,5.60
2018-12-05T05:59:03.933Z,5.60
2018-12-05T06:01:36.434Z,5.60
2018-12-05T06:04:13.166Z,5.60
2018-12-05T06:06:47.074Z,5.60
2018-12-05T06:09:20.957Z,5.60
2018-12-05T06:11:54.863Z,5.60
2018-12-05T06:14:28.947Z,5.60
2018-12-05T06:17:02.984Z,5.60
2018-12-05T06:19:37.055Z,5.60
2018-12-05T06:22:11.887Z,5.60
2018-12-05T06:24:43.661Z,5.60
2018-12-05T06:27:21.781Z,5.60
2018-12-05T06:29:55.950Z,5.60
2018-12-05T06:32:27.920Z,5.50
2018-12-05T06:34:59.844Z,5.60
2018-12-05T06:37:31.877Z,5.60
2018-12-05T06:40:04.128Z,5.60
2018-12-05T06:42:40.580Z,5.60
2018-12-05T06:45:12.120Z,5.60
2018-12-05T06:47:46.893Z,5.60
2018-12-05T06:50:19.628Z,5.60
2018-12-05T06:52:54.465Z,5.60
2018-12-05T06:55:29.068Z,5.60
2018-12-05T06:58:03.649Z,5.60
2018-12-05T07:00:35.526Z,5.60
2018-12-05T07:03:07.184Z,5.60
2018-12-05T07:05:40.127Z,5.60
2018-12-05T07:08:15.069Z,5.60
2018-12-05T07:10:49.801Z,5.60
2018-12-05T07:13:21.900Z,5.60
2018-12-05T07:15:56.215Z,5.60
2018-12-05T07:18:28.973Z,5.60
2018-12-05T07:23:54.426Z,5.60
2018-12-05T07:26:26.976Z,5.70
2018-12-05T07:28:59.349Z,5.60
2018-12-05T07:31:27.887Z,5.70
2018-12-05T07:34:02.357Z,5.60
2018-12-05T07:36:36.747Z,5.60
2018-12-05T07:39:07.685Z,5.60
2018-12-05T07:41:36.521Z,5.70
2018-12-05T07:44:05.039Z,5.60
2018-12-05T07:46:33.494Z,5.60
2018-12-05T07:49:02.032Z,5.60
2018-12-05T07:51:30.484Z,5.60
2018-12-05T07:53:59.057Z,5.60
2018-12-05T07:56:27.647Z,5.70
2018-12-05T07:58:56.210Z,5.70
2018-12-05T08:01:28.551Z,5.70
2018-12-05T08:04:00.354Z,5.40
2018-12-05T08:06:34.669Z,5.70
2018-12-05T08:09:08.981Z,5.70
2018-12-05T08:11:40.767Z,5.70
2018-12-05T08:14:12.785Z,5.60
2018-12-05T08:16:45.105Z,5.60
2018-12-05T08:19:17.016Z,5.60
2018-12-05T08:21:48.988Z,5.60
2018-12-05T08:24:20.884Z,5.70
2018-12-05T08:27:07.402Z,5.70
2018-12-05T08:29:36.075Z,5.70
2018-12-05T08:32:11.512Z,5.70
2018-12-05T08:34:40.102Z,5.80
2018-12-05T08:37:12.444Z,5.80
2018-12-05T08:39:49.798Z,5.80
2018-12-05T08:42:30.064Z,5.80
2018-12-05T08:45:04.536Z,5.80
2018-12-05T08:47:40.098Z,5.80
2018-12-05T08:50:09.212Z,5.90
2018-12-05T08:52:43.183Z,5.80
2018-12-05T08:55:11.844Z,5.90
2018-12-05T08:57:43.010Z,5.90
2018-12-05T09:00:17.294Z,5.90
2018-12-05T09:02:55.466Z,5.90
2018-12-05T09:15:20.492Z,6.00
2018-12-05T09:18:00.127Z,6.00
2018-12-05T09:26:37.391Z,6.00
2018-12-05T09:29:28.805Z,6.00
2018-12-05T09:32:11.991Z,6.00
2018-12-05T09:34:48.420Z,6.00
2018-12-05T09:37:31.625Z,6.00
2018-12-05T09:40:04.350Z,6.00
2018-12-05T09:45:32.860Z,6.10
2018-12-05T09:48:05.467Z,6.10
2018-12-05T09:50:55.496Z,6.10
2018-12-05T09:53:42.039Z,6.10
2018-12-05T09:56:18.629Z,6.10
2018-12-05T09:58:53.000Z,6.10
2018-12-05T10:01:29.595Z,6.10
2018-12-05T10:04:01.780Z,6.10
2018-12-05T10:06:47.026Z,6.10
2018-12-05T10:09:20.017Z,6.20
2018-12-05T10:11:52.257Z,6.20
2018-12-05T10:14:27.189Z,6.20
2018-12-05T10:17:08.075Z,6.30
2018-12-05T10:19:40.739Z,6.30
2018-12-05T10:22:15.463Z,6.40
2018-12-05T10:24:48.322Z,6.40
2018-12-05T10:27:20.656Z,6.40
2018-12-05T10:29:57.628Z,6.40
2018-12-05T10:32:29.549Z,6.40
2018-12-05T10:35:02.171Z,6.40
2018-12-05T10:37:36.696Z,6.50
2018-12-05T10:40:05.740Z,6.50
2018-12-05T10:42:37.625Z,6.50
2018-12-05T10:45:12.204Z,6.50
2018-12-05T10:47:46.279Z,6.50
2018-12-05T10:50:20.663Z,6.60
2018-12-05T10:52:55.476Z,6.60
2018-12-05T10:55:27.076Z,6.60
2018-12-05T10:57:59.253Z,6.60
2018-12-05T11:01:39.937Z,6.70
2018-12-05T11:07:14.899Z,6.70
2018-12-05T11:10:03.026Z,6.80
2018-12-05T11:12:40.055Z,6.80
2018-12-05T11:15:18.241Z,6.80
2018-12-05T11:17:57.751Z,6.90
2018-12-05T11:20:39.853Z,6.90
2018-12-05T11:23:15.083Z,6.90
2018-12-05T11:25:50.365Z,6.90
2018-12-05T11:28:24.845Z,6.90
2018-12-05T11:31:11.792Z,7.00
2018-12-05T11:33:46.255Z,7.00
2018-12-05T11:36:18.193Z,7.00
2018-12-05T11:38:48.350Z,7.00
2018-12-05T11:41:20.685Z,7.10
2018-12-05T11:43:55.283Z,7.10
2018-12-05T11:46:27.155Z,7.00
2018-12-05T11:48:59.372Z,7.10
2018-12-05T11:51:34.131Z,7.10
2018-12-05T11:54:06.607Z,7.20
2018-12-05T11:56:43.061Z,7.20
2018-12-05T11:59:14.900Z,7.20
2018-12-05T12:01:51.758Z,7.20
2018-12-05T12:04:24.303Z,7.20
2018-12-05T12:06:58.494Z,7.20
2018-12-05T12:09:32.592Z,7.20
2018-12-05T12:12:04.431Z,7.30
2018-12-05T12:14:36.094Z,7.30
2018-12-05T12:17:08.563Z,7.40
2018-12-05T12:19:41.340Z,7.30
2018-12-05T12:22:13.659Z,7.30
2018-12-05T12:24:47.745Z,7.30
2018-12-05T12:27:19.448Z,7.30
2018-12-05T12:29:51.625Z,7.30
2018-12-05T12:32:24.321Z,7.30
2018-12-05T12:35:05.165Z,7.30
2018-12-05T12:37:37.586Z,7.30
2018-12-05T12:40:22.140Z,7.30
2018-12-05T12:42:54.423Z,7.20
2018-12-05T12:45:22.960Z,7.20
2018-12-05T12:50:22.487Z,7.30
2018-12-05T12:52:56.669Z,7.30
2018-12-05T12:55:28.397Z,7.30
2018-12-05T13:00:56.752Z,7.20
2018-12-05T13:03:28.680Z,7.20
2018-12-05T13:06:00.745Z,7.20
2018-12-05T13:08:32.770Z,7.20
2018-12-05T13:11:21.843Z,7.20
2018-12-05T13:14:01.021Z,7.20
2018-12-05T13:16:48.168Z,7.20
2018-12-05T13:22:36.205Z,7.20
2018-12-05T13:34:16.593Z,7.20
2018-12-05T13:36:52.203Z,7.30
2018-12-05T13:39:24.776Z,7.30
2018-12-05T13:42:07.163Z,7.30
2018-12-05T13:44:40.779Z,7.30
2018-12-05T13:47:27.664Z,7.30
2018-12-05T13:50:00.469Z,7.30
2018-12-05T14:00:12.087Z,7.30
2018-12-05T14:05:42.984Z,7.30
2018-12-05T14:08:15.534Z,7.30
2018-12-05T14:10:50.430Z,7.30
2018-12-05T14:34:43.672Z,7.40
2018-12-05T14:37:15.549Z,7.40
2018-12-05T14:39:47.872Z,7.40
2018-12-05T14:42:22.407Z,7.40
2018-12-05T14:44:57.447Z,7.50
2018-12-05T14:47:28.046Z,7.40
2018-12-05T14:50:03.066Z,7.50
2018-12-05T14:52:35.898Z,7.50
2018-12-05T14:55:15.031Z,7.50
2018-12-05T15:00:53.099Z,7.50
2018-12-05T15:03:35.639Z,7.50
2018-12-05T15:06:08.247Z,7.50
2018-12-05T15:08:40.565Z,7.50
2018-12-05T15:11:14.989Z,7.50
2018-12-05T15:16:42.722Z,7.60
2018-12-05T15:19:15.100Z,7.60
2018-12-05T15:21:50.060Z,7.60
2018-12-05T15:24:34.883Z,7.60
2018-12-05T15:27:23.024Z,7.70
2018-12-05T15:29:55.492Z,7.60
2018-12-05T15:32:34.044Z,7.60
2018-12-05T15:35:08.263Z,7.70
2018-12-05T15:37:43.060Z,7.70
2018-12-05T15:40:14.604Z,7.70
2018-12-05T15:42:46.390Z,7.70
2018-12-05T15:48:12.083Z,7.70
2018-12-05T15:50:44.063Z,7.70
2018-12-05T15:53:13.356Z,7.70
2018-12-05T15:55:45.809Z,7.70
2018-12-05T15:58:22.472Z,7.80
2018-12-05T16:03:47.283Z,7.80
2018-12-05T16:06:15.759Z,7.80
2018-12-05T16:08:44.318Z,7.80
2018-12-05T16:11:12.783Z,7.80
2018-12-05T16:13:41.261Z,7.90
2018-12-05T16:16:09.801Z,7.90
2018-12-05T16:18:38.276Z,7.90
2018-12-05T16:21:06.719Z,7.90
2018-12-05T16:23:35.188Z,7.90
2018-12-05T16:26:10.417Z,7.90
2018-12-05T16:28:34.328Z,7.90
2018-12-05T16:31:03.264Z,8.00
2018-12-05T16:33:33.075Z,8.00
2018-12-05T16:36:01.751Z,8.00
2018-12-05T16:38:30.381Z,8.00
2018-12-05T16:40:58.837Z,8.00
2018-12-05T16:43:27.264Z,8.00
2018-12-05T16:45:55.688Z,8.00
2018-12-05T16:48:24.266Z,8.00
2018-12-05T16:50:52.682Z,8.00
2018-12-05T16:53:21.183Z,8.00
2018-12-05T16:55:49.687Z,8.00
2018-12-05T16:58:18.114Z,8.00
2018-12-05T17:00:46.603Z,8.10
2018-12-05T17:03:15.089Z,8.10
2018-12-05T17:05:43.484Z,8.10
2018-12-05T17:08:12.912Z,8.10
2018-12-05T17:10:41.332Z,8.10
2018-12-05T17:13:11.727Z,8.20
2018-12-05T17:15:58.981Z,8.10
2018-12-05T17:18:27.562Z,8.20
2018-12-05T17:20:56.101Z,8.20
2018-12-05T17:23:36.368Z,8.20
2018-12-05T17:26:05.154Z,8.20
2018-12-05T17:31:37.785Z,8.20
2018-12-05T17:34:06.239Z,8.20
2018-12-05T17:36:34.742Z,8.20
2018-12-05T17:39:04.111Z,8.20
2018-12-05T17:41:32.600Z,8.30
2018-12-05T17:44:01.280Z,8.20
2018-12-05T17:46:29.739Z,8.20
2018-12-05T17:48:58.344Z,8.30
2018-12-05T17:51:27.269Z,8.30
2018-12-05T17:53:55.767Z,8.30
2018-12-05T17:56:24.460Z,8.30
2018-12-05T17:59:02.776Z,8.30
2018-12-05T18:01:31.584Z,8.30
2018-12-05T18:04:19.779Z,8.30
2018-12-05T18:06:49.488Z,8.30
2018-12-05T18:09:31.560Z,8.30
2018-12-05T18:12:00.312Z,8.20
2018-12-05T18:14:28.908Z,8.30
2018-12-05T18:16:58.367Z,8.30
2018-12-05T18:19:27.646Z,8.30
2018-12-05T18:21:56.266Z,8.30
2018-12-05T18:24:24.739Z,8.30
2018-12-05T18:26:53.408Z,8.40
2018-12-05T18:29:22.059Z,8.30
2018-12-05T18:31:50.647Z,8.30
2018-12-05T18:34:19.236Z,8.40
2018-12-05T18:36:47.798Z,8.40
2018-12-05T18:39:21.452Z,8.40
2018-12-05T18:41:50.187Z,8.30
2018-12-05T18:44:19.040Z,8.40
2018-12-05T18:46:48.370Z,8.30
2018-12-05T18:49:16.860Z,8.30
2018-12-05T18:51:45.509Z,8.30
2018-12-05T18:54:14.869Z,8.30
2018-12-05T18:57:09.249Z,8.40
2018-12-05T18:59:34.896Z,8.40
2018-12-05T19:02:03.367Z,8.40
2018-12-05T19:04:31.888Z,8.40
2018-12-05T19:07:00.323Z,8.40
2018-12-05T19:09:28.767Z,8.40
2018-12-05T19:11:57.205Z,8.40
2018-12-05T19:14:30.870Z,8.40
2018-12-05T19:16:59.339Z,8.40
2018-12-05T19:19:30.490Z,8.50
2018-12-05T19:21:59.055Z,8.50
2018-12-05T19:24:28.216Z,8.50
2018-12-05T19:26:57.034Z,8.50
2018-12-05T19:29:25.465Z,8.50
2018-12-05T19:31:53.979Z,8.50
2018-12-05T19:34:22.689Z,8.50
2018-12-05T19:36:51.200Z,8.50
2018-12-05T19:39:19.728Z,8.50
2018-12-05T19:41:48.260Z,8.50
2018-12-05T19:44:16.707Z,8.60
2018-12-05T19:46:45.100Z,8.50
2018-12-05T19:49:13.669Z,8.50
2018-12-05T19:51:42.334Z,8.50
2018-12-05T19:54:11.354Z,8.50
2018-12-05T19:56:39.898Z,8.60
2018-12-05T19:59:08.287Z,8.50
2018-12-05T20:01:36.744Z,8.50
2018-12-05T20:04:05.304Z,8.60
2018-12-05T20:06:33.703Z,8.60
2018-12-05T20:09:02.209Z,8.60
2018-12-05T20:11:30.689Z,8.60
2018-12-05T20:13:59.485Z,8.60
2018-12-05T20:16:28.021Z,8.60
2018-12-05T20:18:56.459Z,8.60
2018-12-05T20:21:24.999Z,8.60
2018-12-05T20:23:53.475Z,8.60
2018-12-05T20:26:21.935Z,8.60
2018-12-05T20:29:04.238Z,8.60
2018-12-05T20:31:32.749Z,8.60
2018-12-05T20:34:01.238Z,8.60
2018-12-05T20:36:29.787Z,8.60
2018-12-05T20:38:58.298Z,8.70
2018-12-05T20:41:32.386Z,8.70
2018-12-05T20:43:57.233Z,8.70
2018-12-05T20:46:25.714Z,8.70
2018-12-05T20:48:54.175Z,8.70
2018-12-05T20:51:22.656Z,8.80
2018-12-05T20:53:51.075Z,8.80
2018-12-05T20:56:19.482Z,8.80
2018-12-05T20:58:47.978Z,8.90
2018-12-05T21:01:16.468Z,8.80
2018-12-05T21:03:44.875Z,8.90
2018-12-05T21:06:13.300Z,8.90
2018-12-05T21:08:41.788Z,8.90
2018-12-05T21:11:10.285Z,8.90
2018-12-05T21:13:38.820Z,8.90
2018-12-05T21:16:07.263Z,9.00
2018-12-05T21:18:35.706Z,9.00
2018-12-05T21:21:04.286Z,9.00
2018-12-05T21:23:32.855Z,9.00
2018-12-05T21:26:01.272Z,9.00
2018-12-05T21:28:29.713Z,9.10
2018-12-05T21:30:58.124Z,9.00
2018-12-05T21:33:26.543Z,9.00
2018-12-05T21:35:54.949Z,9.10
2018-12-05T21:38:23.495Z,9.10
2018-12-05T21:40:51.953Z,9.10
2018-12-05T21:43:20.341Z,9.10
2018-12-05T21:45:48.823Z,9.10
2018-12-05T21:48:17.303Z,9.10
2018-12-05T21:50:45.719Z,9.20
2018-12-05T21:53:14.353Z,9.20
2018-12-05T21:55:43.066Z,9.20
2018-12-05T21:58:11.543Z,9.20
2018-12-05T22:00:39.981Z,9.20
2018-12-05T22:03:08.420Z,9.30
2018-12-05T22:05:36.963Z,9.20
2018-12-05T22:08:05.509Z,9.30
2018-12-05T22:10:33.928Z,9.20
2018-12-05T22:13:02.409Z,9.20
2018-12-05T22:15:30.819Z,9.30
2018-12-05T22:17:59.340Z,9.30
2018-12-05T22:20:29.704Z,9.30
2018-12-05T22:22:58.386Z,9.30
2018-12-05T22:25:26.939Z,9.40
2018-12-05T22:27:56.678Z,9.30
2018-12-05T22:30:26.772Z,9.40
2018-12-05T22:32:55.181Z,9.40
2018-12-05T22:35:23.656Z,9.40
2018-12-05T22:37:52.157Z,9.40
2018-12-05T22:40:20.645Z,9.40
2018-12-05T22:42:49.972Z,9.40
2018-12-05T22:45:18.444Z,9.40
2018-12-05T22:47:46.894Z,9.40
2018-12-05T22:50:15.311Z,9.40
2018-12-05T22:52:43.844Z,9.40
2018-12-05T22:55:12.327Z,9.50
2018-12-05T22:57:40.751Z,9.50
2018-12-05T23:00:16.224Z,9.50
2018-12-05T23:02:44.773Z,9.40
2018-12-05T23:05:13.319Z,9.50
2018-12-05T23:07:41.786Z,9.50
2018-12-05T23:10:10.365Z,9.50
2018-12-05T23:12:38.859Z,9.50
2018-12-05T23:15:07.370Z,9.50
2018-12-05T23:17:35.855Z,9.50
2018-12-05T23:20:04.977Z,9.50
2018-12-05T23:22:33.483Z,9.40
2018-12-05T23:25:01.976Z,9.50
2018-12-05T23:27:30.473Z,9.40
2018-12-05T23:29:58.944Z,9.40
2018-12-05T23:32:27.520Z,9.50
2018-12-05T23:34:56.077Z,9.50
2018-12-05T23:37:47.288Z,9.50
2018-12-05T23:40:22.307Z,9.40
2018-12-05T23:42:52.207Z,9.50
2018-12-05T23:45:26.733Z,9.50
2018-12-05T23:51:01.384Z,9.50
2018-12-05T23:53:33.098Z,9.50
2018-12-05T23:59:10.342Z,9.50
